CheckWX is a tool to help pilots better visualize weather data.  It is not intended as a substitute for an official pre-flight weather briefing.

05:14:37 UTC

CYGE METAR
Golden Airport
Golden, Canada
Current

5 hours ago

CYGE 240000Z 34003KT 290V080 20SM FEW035 FEW045 BKN084 M03/M13 A3010 RMK SC1CU1AC5 SH DIST ALQDS LAST STFD OBS/NEXT 241400Z SLP240
Observed
Feb-24 @ 00:00 UTC
Wind
  • 340° at 3 KTS
Visibility
20 SM
Flight Rules
VFR
Cloud Levels
  • Few at 3,500' AGL
  • Few at 4,500' AGL
  • Broken at 8,400' AGL
Temperature
-3°C / 27°F
Dewpoint
-13°C / 9°F
Humidity
46%
Altimeter
30.1" Hg
Pressure
1024 hPa
Previous

6 hours ago

CYGE 232300Z 34004KT 300V030 20SM FEW030 SCT050 BKN080 BKN120 M03/M13 A3009 RMK SC2CU1AC2AC1 SH DIST ALQDS SLP235
Observed
Feb-23 @ 23:00 UTC
Wind
  • 340° at 4 KTS
Visibility
20 SM
Flight Rules
VFR
Cloud Levels
  • Few at 3,000' AGL
  • Scattered at 5,000' AGL
  • Broken at 8,000' AGL
  • Broken at 12,000' AGL
Temperature
-3°C / 27°F
Dewpoint
-13°C / 9°F
Humidity
46%
Altimeter
30.09" Hg
Pressure
1023.5 hPa
Previous

7 hours ago

CYGE 232200Z 31009KT 300V360 20SM VCSH FEW030 SCT045 BKN050 BKN080 M03/M14 A3009 RMK ST2CU1SC2AC1 SH E-S SLP233
Observed
Feb-23 @ 22:00 UTC
Wind
  • 310° at 9 KTS
Visibility
20 SM
Flight Rules
VFR
Cloud Levels
  • Few at 3,000' AGL
  • Scattered at 4,500' AGL
  • Broken at 5,000' AGL
  • Broken at 8,000' AGL
Temperature
-3°C / 27°F
Dewpoint
-14°C / 7°F
Humidity
43%
Altimeter
30.09" Hg
Pressure
1023.3 hPa